Time;durP1;ratioP1;P1;durP2;ratioP2;P2;SDS_P1;SDS_P2;PMS_P1;PMS_P2;Temp;Humidity;BMP_temperature;BMP_pressure;BME280_temperature;BME280_humidity;BME280_pressure;Samples;Min_cycle;Max_cycle;Signal;HPM_P1;HPM_P2
2023/12/06 00:01:35;;;;;;;19.77;18.27;;;;;;;;;;4980494;28;20516;-42
2023/12/06 00:04:00;;;;;;;34.90;32.17;;;;;;;;;;4985705;28;20420;-42
2023/12/06 00:06:26;;;;;;;29.13;26.93;;;;;;;;;;4980516;28;20474;-42
2023/12/06 00:08:52;;;;;;;29.57;27.30;;;;;;;;;;4977350;28;20512;-42
2023/12/06 00:11:21;;;;;;;28.00;25.93;;;;;;;;;;4980755;28;21045;-42
2023/12/06 00:13:47;;;;;;;33.65;25.45;;;;;;;;;;4982419;28;20897;-42
2023/12/06 00:16:13;;;;;;;41.25;37.35;;;;;;;;;;4986826;28;20297;-42
2023/12/06 00:18:41;;;;;;;40.40;36.65;;;;;;;;;;4985907;28;20485;-42
2023/12/06 00:21:07;;;;;;;30.02;27.27;;;;;;;;;;4987725;28;20219;-42
2023/12/06 00:23:33;;;;;;;31.42;28.17;;;;;;;;;;4983427;28;20541;-42
2023/12/06 00:25:59;;;;;;;26.73;24.23;;;;;;;;;;4979523;28;20186;-42
2023/12/06 00:28:25;;;;;;;25.17;23.37;;;;;;;;;;4986954;28;20416;-42
2023/12/06 00:30:51;;;;;;;25.00;23.45;;;;;;;;;;4984443;28;20991;-42
2023/12/06 00:33:17;;;;;;;21.87;20.47;;;;;;;;;;4984223;28;20174;-42
2023/12/06 00:35:43;;;;;;;22.27;20.87;;;;;;;;;;4983775;28;20773;-43
2023/12/06 00:38:09;;;;;;;18.83;17.47;;;;;;;;;;4985495;28;20420;-42
2023/12/06 00:40:35;;;;;;;25.17;23.58;;;;;;;;;;4981656;28;20519;-42
2023/12/06 00:43:06;;;;;;;19.47;18.33;;;;;;;;;;4985620;28;20668;-43
2023/12/06 00:45:32;;;;;;;23.25;21.85;;;;;;;;;;4986204;28;20775;-42
2023/12/06 00:47:58;;;;;;;25.25;23.45;;;;;;;;;;4982366;28;20177;-42
2023/12/06 00:50:24;;;;;;;25.77;23.90;;;;;;;;;;4985943;28;20219;-42
2023/12/06 00:52:50;;;;;;;24.77;23.00;;;;;;;;;;4983592;28;20837;-42
2023/12/06 00:55:16;;;;;;;34.30;31.65;;;;;;;;;;4982617;28;20468;-42
2023/12/06 00:57:42;;;;;;;38.38;34.45;;;;;;;;;;4983408;28;20173;-42
2023/12/06 01:00:08;;;;;;;32.13;29.45;;;;;;;;;;4988369;28;20251;-42
2023/12/06 01:02:34;;;;;;;36.55;33.85;;;;;;;;;;4984498;28;20196;-42
2023/12/06 01:05:00;;;;;;;36.13;33.27;;;;;;;;;;4980909;28;20182;-43
2023/12/06 01:07:26;;;;;;;42.13;38.17;;;;;;;;;;4982593;28;20500;-42
2023/12/06 01:09:52;;;;;;;36.80;33.70;;;;;;;;;;4982857;28;20463;-43
2023/12/06 01:12:19;;;;;;;41.88;38.28;;;;;;;;;;4986387;28;20483;-42
2023/12/06 01:14:46;;;;;;;38.25;34.53;;;;;;;;;;4984679;28;20189;-42
2023/12/06 01:17:12;;;;;;;40.25;37.10;;;;;;;;;;4986735;28;20173;-41
2023/12/06 01:19:38;;;;;;;32.67;30.48;;;;;;;;;;4983001;28;20196;-42
2023/12/06 01:22:04;;;;;;;35.23;32.57;;;;;;;;;;4978639;28;20186;-42
2023/12/06 01:24:30;;;;;;;35.70;32.77;;;;;;;;;;4985860;28;20415;-42
2023/12/06 01:26:56;;;;;;;34.50;32.00;;;;;;;;;;4983359;28;20835;-42
2023/12/06 01:29:22;;;;;;;31.27;29.17;;;;;;;;;;4985752;28;20899;-42
2023/12/06 01:31:48;;;;;;;31.63;29.10;;;;;;;;;;4982958;28;20496;-42
2023/12/06 01:34:14;;;;;;;30.13;27.75;;;;;;;;;;4984754;28;20409;-42
2023/12/06 01:36:40;;;;;;;40.77;37.23;;;;;;;;;;4981834;28;20252;-42
2023/12/06 01:39:07;;;;;;;31.13;28.73;;;;;;;;;;4983626;28;20447;-42
2023/12/06 01:41:33;;;;;;;40.33;37.05;;;;;;;;;;4985427;28;20177;-42
2023/12/06 01:43:59;;;;;;;34.07;31.20;;;;;;;;;;4980567;28;20519;-42
2023/12/06 01:46:25;;;;;;;37.23;34.10;;;;;;;;;;4983792;28;20760;-42
2023/12/06 01:48:51;;;;;;;38.07;34.87;;;;;;;;;;4982124;28;20898;-43
2023/12/06 01:51:18;;;;;;;36.00;33.25;;;;;;;;;;4982977;28;20401;-42
2023/12/06 01:53:44;;;;;;;39.22;36.03;;;;;;;;;;4982228;28;20252;-42
2023/12/06 01:56:11;;;;;;;34.17;31.67;;;;;;;;;;4987716;28;20184;-42
2023/12/06 01:58:38;;;;;;;37.65;34.67;;;;;;;;;;4983569;28;20165;-42
2023/12/06 02:01:05;;;;;;;34.92;31.92;;;;;;;;;;4979606;28;20212;-42
2023/12/06 02:03:32;;;;;;;34.78;32.08;;;;;;;;;;4980486;28;20184;-42
2023/12/06 02:05:59;;;;;;;44.90;34.38;;;;;;;;;;4978371;28;20655;-42
2023/12/06 02:08:25;;;;;;;39.78;36.45;;;;;;;;;;4982946;28;20196;-43
2023/12/06 02:10:51;;;;;;;40.80;37.37;;;;;;;;;;4981881;28;20672;-43
2023/12/06 02:13:17;;;;;;;39.70;36.07;;;;;;;;;;4982990;28;20436;-43
2023/12/06 02:15:43;;;;;;;36.40;33.00;;;;;;;;;;4981497;28;20409;-43
2023/12/06 02:18:09;;;;;;;41.03;37.17;;;;;;;;;;4987608;28;20419;-43
2023/12/06 02:20:36;;;;;;;38.17;34.67;;;;;;;;;;4984016;28;20904;-42
2023/12/06 02:23:03;;;;;;;40.53;36.83;;;;;;;;;;4980818;28;20273;-43
2023/12/06 02:25:29;;;;;;;44.75;40.13;;;;;;;;;;4979817;28;20180;-43
2023/12/06 02:27:57;;;;;;;35.27;32.27;;;;;;;;;;4979428;28;20185;-43
2023/12/06 02:30:23;;;;;;;38.90;35.45;;;;;;;;;;4984483;28;20467;-43
2023/12/06 02:32:49;;;;;;;36.33;33.53;;;;;;;;;;4981461;28;20186;-43
2023/12/06 02:35:24;;;;;;;35.58;32.47;;;;;;;;;;4984720;28;20400;-43
2023/12/06 02:37:52;;;;;;;43.75;36.88;;;;;;;;;;4980534;28;20181;-43
2023/12/06 02:40:18;;;;;;;40.10;36.30;;;;;;;;;;4979274;28;20197;-43
2023/12/06 02:42:44;;;;;;;36.63;33.63;;;;;;;;;;4985823;28;20189;-43
2023/12/06 02:45:10;;;;;;;39.47;35.57;;;;;;;;;;4987409;28;20193;-43
2023/12/06 02:47:36;;;;;;;35.97;33.17;;;;;;;;;;4983772;28;20427;-42
2023/12/06 02:50:02;;;;;;;35.87;33.00;;;;;;;;;;4978995;28;20530;-42
2023/12/06 02:52:28;;;;;;;36.40;33.43;;;;;;;;;;4980996;28;20464;-43
2023/12/06 02:54:54;;;;;;;38.97;34.90;;;;;;;;;;4981399;28;20428;-42
2023/12/06 02:57:20;;;;;;;38.57;35.07;;;;;;;;;;4984643;28;20656;-42
2023/12/06 02:59:46;;;;;;;40.43;36.77;;;;;;;;;;4983177;28;20469;-42
2023/12/06 03:02:12;;;;;;;38.87;35.07;;;;;;;;;;4985634;28;20438;-42
2023/12/06 03:04:38;;;;;;;47.80;36.97;;;;;;;;;;4982119;28;20463;-43
2023/12/06 03:07:04;;;;;;;39.10;34.97;;;;;;;;;;4977626;28;20503;-42
2023/12/06 03:09:30;;;;;;;41.40;36.90;;;;;;;;;;4983923;28;20887;-42
2023/12/06 03:11:55;;;;;;;42.10;38.17;;;;;;;;;;4982529;28;20897;-42
2023/12/06 03:14:22;;;;;;;57.90;45.67;;;;;;;;;;4984343;28;20404;-43
2023/12/06 03:16:48;;;;;;;54.40;43.63;;;;;;;;;;4981406;28;20503;-42
2023/12/06 03:19:14;;;;;;;55.63;45.97;;;;;;;;;;4983386;28;20329;-43
2023/12/06 03:21:40;;;;;;;41.63;37.67;;;;;;;;;;4980623;28;20654;-43
2023/12/06 03:24:06;;;;;;;43.58;38.95;;;;;;;;;;4982246;28;20187;-43
2023/12/06 03:26:32;;;;;;;45.73;36.90;;;;;;;;;;4984549;28;20184;-43
2023/12/06 03:28:58;;;;;;;41.90;37.47;;;;;;;;;;4980318;28;20811;-42
2023/12/06 03:31:24;;;;;;;52.17;37.90;;;;;;;;;;4982983;28;20161;-42
2023/12/06 03:33:50;;;;;;;52.33;37.10;;;;;;;;;;4980851;28;20983;-43
2023/12/06 03:36:16;;;;;;;54.78;37.35;;;;;;;;;;4982045;28;20412;-42
2023/12/06 03:38:42;;;;;;;49.17;39.10;;;;;;;;;;4980276;28;20193;-42
2023/12/06 03:41:09;;;;;;;43.10;38.88;;;;;;;;;;4987140;28;20181;-43
2023/12/06 03:43:35;;;;;;;55.42;37.55;;;;;;;;;;4984048;28;20192;-42
2023/12/06 03:46:01;;;;;;;46.30;36.77;;;;;;;;;;4979026;28;20181;-43
2023/12/06 03:48:27;;;;;;;59.63;41.43;;;;;;;;;;4982186;28;20409;-43
2023/12/06 03:50:52;;;;;;;56.83;37.38;;;;;;;;;;4984237;28;20896;-43
2023/12/06 03:53:18;;;;;;;46.63;34.30;;;;;;;;;;4987920;28;20176;-43
2023/12/06 03:55:44;;;;;;;29.47;27.07;;;;;;;;;;4991537;28;20636;-42
2023/12/06 03:58:10;;;;;;;27.73;25.37;;;;;;;;;;4985203;28;20896;-42
2023/12/06 04:00:37;;;;;;;27.43;25.47;;;;;;;;;;4985222;28;20981;-44
2023/12/06 04:03:07;;;;;;;26.90;25.05;;;;;;;;;;4981039;28;20467;-42
2023/12/06 04:05:33;;;;;;;34.33;31.83;;;;;;;;;;4987352;28;20169;-42
2023/12/06 04:07:59;;;;;;;30.08;27.98;;;;;;;;;;4985933;28;20176;-42
2023/12/06 04:10:25;;;;;;;23.47;21.83;;;;;;;;;;4987151;28;20579;-42
2023/12/06 04:12:51;;;;;;;25.70;23.90;;;;;;;;;;4984528;28;20417;-42
2023/12/06 04:15:17;;;;;;;18.42;16.83;;;;;;;;;;4987190;28;20508;-42
2023/12/06 04:17:43;;;;;;;23.63;21.92;;;;;;;;;;4984338;28;20326;-43
2023/12/06 04:20:09;;;;;;;18.55;17.20;;;;;;;;;;4979370;28;20216;-42
2023/12/06 04:22:36;;;;;;;19.42;18.13;;;;;;;;;;4987407;28;20244;-43
2023/12/06 04:25:02;;;;;;;28.40;26.38;;;;;;;;;;4979940;28;20182;-42
2023/12/06 04:27:28;;;;;;;28.52;26.77;;;;;;;;;;4966427;28;20650;-42
2023/12/06 04:29:54;;;;;;;29.47;27.53;;;;;;;;;;4961539;28;20257;-42
2023/12/06 04:32:21;;;;;;;31.50;29.37;;;;;;;;;;4974223;28;20401;-42
2023/12/06 04:34:54;;;;;;;24.88;23.23;;;;;;;;;;4956744;28;20409;-42
2023/12/06 04:37:20;;;;;;;25.50;23.80;;;;;;;;;;4974634;28;20165;-43
2023/12/06 04:39:46;;;;;;;28.90;26.90;;;;;;;;;;4961230;28;20204;-42
2023/12/06 04:42:12;;;;;;;28.23;26.33;;;;;;;;;;4956924;28;20540;-42
2023/12/06 04:44:38;;;;;;;35.45;32.83;;;;;;;;;;4956723;28;20900;-42
2023/12/06 04:47:04;;;;;;;34.38;32.08;;;;;;;;;;4958127;28;20177;-42
2023/12/06 04:49:30;;;;;;;33.58;31.27;;;;;;;;;;4975124;28;20623;-42
2023/12/06 04:51:56;;;;;;;30.37;28.17;;;;;;;;;;4958023;28;20172;-42
2023/12/06 04:54:25;;;;;;;49.85;46.53;;;;;;;;;;4969555;28;20503;-42
2023/12/06 04:56:51;;;;;;;44.83;41.60;;;;;;;;;;4974877;28;20222;-42
2023/12/06 04:59:17;;;;;;;42.22;39.10;;;;;;;;;;4968269;28;20572;-42
2023/12/06 05:01:43;;;;;;;37.60;35.00;;;;;;;;;;4957686;28;20214;-41
2023/12/06 05:04:10;;;;;;;36.35;33.65;;;;;;;;;;4975478;28;20183;-42
2023/12/06 05:06:36;;;;;;;42.22;39.25;;;;;;;;;;4957602;28;20662;-43
2023/12/06 05:09:07;;;;;;;35.70;33.40;;;;;;;;;;4968883;28;20209;-42
2023/12/06 05:11:33;;;;;;;51.08;47.63;;;;;;;;;;4964963;28;20174;-43
2023/12/06 05:14:00;;;;;;;34.05;31.65;;;;;;;;;;4961780;28;20178;-43
2023/12/06 05:16:26;;;;;;;35.22;32.42;;;;;;;;;;4972699;28;20280;-43
2023/12/06 05:18:52;;;;;;;39.80;36.67;;;;;;;;;;4955380;28;20661;-42
2023/12/06 05:21:18;;;;;;;38.30;35.10;;;;;;;;;;4973329;28;20208;-42
2023/12/06 05:23:44;;;;;;;41.20;38.30;;;;;;;;;;4961507;28;20184;-42
2023/12/06 05:26:10;;;;;;;39.00;36.23;;;;;;;;;;4965194;28;20541;-43
2023/12/06 05:28:36;;;;;;;37.33;34.72;;;;;;;;;;4968561;28;20448;-43
2023/12/06 05:31:02;;;;;;;36.28;33.85;;;;;;;;;;4957081;28;20230;-43
2023/12/06 05:33:28;;;;;;;40.42;37.83;;;;;;;;;;4974862;28;20204;-42
2023/12/06 05:35:57;;;;;;;31.63;29.77;;;;;;;;;;4957466;28;20202;-42
2023/12/06 05:38:23;;;;;;;42.40;39.40;;;;;;;;;;4968439;28;20460;-43
2023/12/06 05:40:50;;;;;;;32.10;30.00;;;;;;;;;;4964906;28;20203;-42
2023/12/06 05:43:16;;;;;;;34.80;32.75;;;;;;;;;;4960971;28;20205;-42
2023/12/06 05:45:42;;;;;;;26.45;24.85;;;;;;;;;;4972895;28;20208;-42
2023/12/06 05:48:08;;;;;;;31.77;29.90;;;;;;;;;;4955160;28;20181;-42
2023/12/06 05:50:34;;;;;;;25.88;24.38;;;;;;;;;;4971815;28;20467;-42
2023/12/06 05:53:02;;;;;;;21.25;19.98;;;;;;;;;;4961242;28;20549;-42
2023/12/06 05:55:28;;;;;;;22.50;21.10;;;;;;;;;;4964281;28;20660;-42
2023/12/06 05:57:54;;;;;;;23.90;22.43;;;;;;;;;;4973716;28;20260;-42
2023/12/06 06:00:22;;;;;;;20.83;19.43;;;;;;;;;;4972548;28;20802;-42
2023/12/06 06:02:49;;;;;;;18.60;17.40;;;;;;;;;;4954965;28;20929;-42
2023/12/06 06:05:16;;;;;;;15.00;13.95;;;;;;;;;;4972127;28;20181;-42
2023/12/06 06:07:42;;;;;;;13.90;12.90;;;;;;;;;;4960545;28;20182;-42
2023/12/06 06:10:08;;;;;;;13.63;12.68;;;;;;;;;;4964330;28;20205;-42
2023/12/06 06:12:34;;;;;;;11.02;10.13;;;;;;;;;;4968537;28;20310;-43
2023/12/06 06:15:00;;;;;;;11.50;10.50;;;;;;;;;;4956389;28;20170;-42
2023/12/06 06:17:26;;;;;;;10.57;9.67;;;;;;;;;;4973974;28;20174;-42
2023/12/06 06:19:52;;;;;;;8.13;7.43;;;;;;;;;;4956465;28;20433;-43
2023/12/06 06:22:18;;;;;;;11.60;10.70;;;;;;;;;;4967394;28;20749;-42
2023/12/06 06:24:44;;;;;;;14.35;13.30;;;;;;;;;;4964743;28;20178;-42
2023/12/06 06:27:10;;;;;;;14.82;13.77;;;;;;;;;;4959501;28;20191;-42
2023/12/06 06:29:37;;;;;;;25.20;23.50;;;;;;;;;;4972309;28;20197;-41
2023/12/06 06:32:03;;;;;;;20.63;19.30;;;;;;;;;;4954435;28;20426;-42
2023/12/06 06:34:29;;;;;;;22.25;20.95;;;;;;;;;;4970852;28;20174;-42
2023/12/06 06:36:55;;;;;;;25.67;24.15;;;;;;;;;;4961009;28;20178;-42
2023/12/06 06:39:21;;;;;;;15.87;14.73;;;;;;;;;;4962252;28;20203;-42
2023/12/06 06:41:47;;;;;;;16.17;15.07;;;;;;;;;;4968864;28;20856;-42
2023/12/06 06:44:13;;;;;;;15.57;14.47;;;;;;;;;;4954673;28;20592;-42
2023/12/06 06:46:39;;;;;;;16.33;15.27;;;;;;;;;;4973504;28;20832;-43
2023/12/06 06:49:05;;;;;;;13.93;12.93;;;;;;;;;;4957050;28;20447;-43
2023/12/06 06:51:38;;;;;;;16.10;15.03;;;;;;;;;;4966333;28;20696;-41
2023/12/06 06:54:07;;;;;;;15.05;13.95;;;;;;;;;;4964871;28;20906;-43
2023/12/06 06:56:34;;;;;;;10.68;9.85;;;;;;;;;;4969566;28;20169;-42
2023/12/06 06:59:00;;;;;;;13.70;12.60;;;;;;;;;;4971445;28;20193;-42
2023/12/06 07:01:26;;;;;;;14.18;13.13;;;;;;;;;;4953815;28;20673;-42
2023/12/06 07:03:53;;;;;;;15.95;14.80;;;;;;;;;;4976716;28;20185;-42
2023/12/06 07:06:19;;;;;;;22.35;20.95;;;;;;;;;;4980351;28;20216;-42
2023/12/06 07:08:45;;;;;;;23.65;22.20;;;;;;;;;;4978406;28;20268;-43
2023/12/06 07:11:11;;;;;;;25.00;23.43;;;;;;;;;;4983544;28;20861;-42
2023/12/06 07:13:36;;;;;;;17.13;15.93;;;;;;;;;;4979417;28;20996;-42
2023/12/06 07:16:03;;;;;;;13.73;12.63;;;;;;;;;;4982279;28;20425;-42
2023/12/06 07:18:31;;;;;;;19.20;17.65;;;;;;;;;;4983855;28;20404;-41
2023/12/06 07:20:57;;;;;;;14.75;13.75;;;;;;;;;;4982420;28;20181;-42
2023/12/06 07:23:23;;;;;;;14.70;13.73;;;;;;;;;;4984042;28;20561;-42
2023/12/06 07:25:49;;;;;;;18.70;17.50;;;;;;;;;;4983789;28;20474;-42
2023/12/06 07:28:15;;;;;;;19.42;18.13;;;;;;;;;;4977588;28;20422;-42
2023/12/06 07:30:41;;;;;;;22.87;21.57;;;;;;;;;;4984049;28;20209;-42
2023/12/06 07:33:07;;;;;;;28.70;27.10;;;;;;;;;;4982793;28;20424;-43
2023/12/06 07:35:34;;;;;;;21.70;20.42;;;;;;;;;;4983371;28;20463;-43
2023/12/06 07:38:00;;;;;;;18.83;17.60;;;;;;;;;;4981557;28;20178;-42
2023/12/06 07:40:26;;;;;;;13.23;12.27;;;;;;;;;;4982399;28;20214;-42
2023/12/06 07:42:52;;;;;;;10.30;9.43;;;;;;;;;;4982257;28;20187;-43
2023/12/06 07:45:18;;;;;;;10.70;9.80;;;;;;;;;;4968258;28;20927;-42
2023/12/06 07:47:44;;;;;;;8.85;8.13;;;;;;;;;;4984310;28;20491;-44
2023/12/06 07:50:10;;;;;;;11.43;10.50;;;;;;;;;;4980389;28;20689;-42
2023/12/06 07:52:36;;;;;;;19.02;17.77;;;;;;;;;;4981263;28;20752;-42
2023/12/06 07:55:06;;;;;;;12.23;11.27;;;;;;;;;;4981992;28;20239;-42
2023/12/06 07:57:32;;;;;;;15.50;14.50;;;;;;;;;;4974512;28;20161;-43
2023/12/06 07:59:58;;;;;;;11.35;10.35;;;;;;;;;;4980255;28;20676;-42
2023/12/06 08:02:26;;;;;;;11.38;10.48;;;;;;;;;;4980358;28;20186;-42
2023/12/06 08:04:52;;;;;;;12.88;11.98;;;;;;;;;;4985288;28;20665;-43
2023/12/06 08:07:18;;;;;;;16.17;15.10;;;;;;;;;;4972290;28;20191;-42
2023/12/06 08:09:44;;;;;;;13.50;12.60;;;;;;;;;;4978225;28;20472;-42
2023/12/06 08:12:10;;;;;;;13.32;12.32;;;;;;;;;;4980663;28;20448;-42
2023/12/06 08:14:39;;;;;;;12.03;11.13;;;;;;;;;;4980532;28;20193;-42
2023/12/06 08:17:05;;;;;;;12.80;11.68;;;;;;;;;;4982053;28;20917;-42
2023/12/06 08:19:31;;;;;;;8.82;7.93;;;;;;;;;;4983014;28;20202;-43
2023/12/06 08:21:57;;;;;;;7.95;7.15;;;;;;;;;;4983726;28;20260;-43
2023/12/06 08:24:23;;;;;;;7.47;6.77;;;;;;;;;;4978448;28;20268;-43
2023/12/06 08:26:50;;;;;;;9.70;8.80;;;;;;;;;;4976409;28;20417;-42
2023/12/06 08:29:16;;;;;;;8.38;7.57;;;;;;;;;;4982955;28;20466;-43
2023/12/06 08:31:42;;;;;;;16.23;14.53;;;;;;;;;;4976407;28;20666;-44
2023/12/06 08:34:08;;;;;;;9.23;8.32;;;;;;;;;;4980566;28;20923;-43
2023/12/06 08:36:35;;;;;;;9.30;8.50;;;;;;;;;;4990628;28;20252;-43
2023/12/06 08:39:01;;;;;;;9.00;8.20;;;;;;;;;;4985279;28;20284;-42
2023/12/06 08:41:27;;;;;;;9.27;8.48;;;;;;;;;;4980507;28;20760;-42
2023/12/06 08:43:53;;;;;;;10.48;9.57;;;;;;;;;;4990227;28;20649;-43
2023/12/06 08:46:20;;;;;;;9.10;8.27;;;;;;;;;;4984392;28;20173;-43
2023/12/06 08:48:46;;;;;;;11.05;10.15;;;;;;;;;;4982880;28;20437;-42
2023/12/06 08:51:12;;;;;;;9.30;8.50;;;;;;;;;;4989953;28;20208;-42
2023/12/06 08:53:38;;;;;;;8.98;8.18;;;;;;;;;;4979187;28;20784;-42
2023/12/06 08:56:04;;;;;;;9.02;8.13;;;;;;;;;;4984546;28;20177;-43
2023/12/06 08:58:30;;;;;;;15.02;13.48;;;;;;;;;;4987203;28;20331;-43
2023/12/06 09:00:57;;;;;;;8.57;7.77;;;;;;;;;;4986029;28;20751;-42
2023/12/06 09:03:22;;;;;;;8.52;7.47;;;;;;;;;;4975904;28;20418;-42
2023/12/06 09:05:48;;;;;;;9.00;8.10;;;;;;;;;;4981139;28;20190;-43
2023/12/06 09:08:15;;;;;;;10.33;9.37;;;;;;;;;;4983477;28;20696;-43
2023/12/06 09:10:41;;;;;;;7.53;5.80;;;;;;;;;;4982991;28;20555;-42
2023/12/06 09:13:07;;;;;;;8.50;6.68;;;;;;;;;;4985232;28;20533;-43
2023/12/06 09:15:33;;;;;;;8.25;7.25;;;;;;;;;;4986363;28;20180;-42
2023/12/06 09:17:59;;;;;;;9.87;8.23;;;;;;;;;;4986577;28;20192;-42
2023/12/06 09:20:25;;;;;;;6.60;5.90;;;;;;;;;;4981255;28;20428;-43
2023/12/06 09:22:51;;;;;;;8.48;7.68;;;;;;;;;;4979008;28;20835;-43
2023/12/06 09:25:17;;;;;;;8.33;7.03;;;;;;;;;;4986138;28;20181;-42
2023/12/06 09:27:43;;;;;;;8.70;7.65;;;;;;;;;;4984542;28;20408;-43
2023/12/06 09:30:09;;;;;;;8.33;6.10;;;;;;;;;;4984738;28;20206;-43
2023/12/06 09:32:35;;;;;;;8.05;6.22;;;;;;;;;;4984133;28;20423;-43
2023/12/06 09:35:01;;;;;;;7.25;5.72;;;;;;;;;;4984785;28;20592;-43
2023/12/06 09:37:27;;;;;;;11.18;10.05;;;;;;;;;;4979921;28;20181;-43
2023/12/06 09:39:53;;;;;;;8.43;6.90;;;;;;;;;;4985333;28;20600;-43
2023/12/06 09:42:20;;;;;;;9.52;8.50;;;;;;;;;;4983559;28;20415;-43
2023/12/06 09:44:46;;;;;;;7.82;6.85;;;;;;;;;;4982432;28;20193;-43
2023/12/06 09:47:12;;;;;;;7.22;6.03;;;;;;;;;;4984259;28;20187;-43
2023/12/06 09:49:38;;;;;;;8.27;5.95;;;;;;;;;;4981839;28;20336;-42
2023/12/06 09:52:12;;;;;;;8.82;7.20;;;;;;;;;;4974704;28;20205;-42
2023/12/06 09:54:43;;;;;;;8.02;7.18;;;;;;;;;;4960910;28;20181;-43
2023/12/06 09:57:10;;;;;;;8.73;7.57;;;;;;;;;;4965126;28;20288;-42
2023/12/06 09:59:36;;;;;;;7.93;6.60;;;;;;;;;;4967692;28;20201;-42
2023/12/06 10:02:02;;;;;;;8.43;6.43;;;;;;;;;;4957058;28;20205;-42
2023/12/06 10:04:28;;;;;;;7.75;6.40;;;;;;;;;;4974261;28;20448;-43
2023/12/06 10:06:54;;;;;;;11.37;10.33;;;;;;;;;;4973473;28;20675;-42
2023/12/06 10:09:20;;;;;;;9.80;8.80;;;;;;;;;;4958568;28;20977;-43
2023/12/06 10:11:49;;;;;;;10.63;9.57;;;;;;;;;;4964396;28;20900;-42
2023/12/06 10:14:21;;;;;;;10.50;9.50;;;;;;;;;;4967704;28;20581;-42
2023/12/06 10:16:48;;;;;;;16.83;14.45;;;;;;;;;;4957625;28;20181;-43
2023/12/06 10:19:22;;;;;;;7.65;6.68;;;;;;;;;;4970900;28;20237;-42
2023/12/06 10:21:48;;;;;;;11.88;10.88;;;;;;;;;;4963755;28;20236;-43
2023/12/06 10:24:14;;;;;;;10.05;9.13;;;;;;;;;;4973449;28;20185;-43
2023/12/06 10:26:40;;;;;;;10.18;9.18;;;;;;;;;;4973601;28;20650;-42
2023/12/06 10:29:06;;;;;;;7.77;6.97;;;;;;;;;;4972974;28;20204;-42
2023/12/06 10:31:42;;;;;;;9.27;8.27;;;;;;;;;;4971459;28;20531;-42
2023/12/06 10:34:08;;;;;;;10.55;9.55;;;;;;;;;;4968203;28;20224;-42
2023/12/06 10:36:35;;;;;;;13.02;11.80;;;;;;;;;;4955085;28;20170;-42
2023/12/06 10:39:02;;;;;;;14.80;13.70;;;;;;;;;;4973152;28;20685;-42
2023/12/06 10:41:31;;;;;;;11.65;10.63;;;;;;;;;;4956055;28;20688;-42
2023/12/06 10:43:58;;;;;;;9.68;8.68;;;;;;;;;;4967285;28;20220;-43
2023/12/06 10:46:25;;;;;;;12.40;11.38;;;;;;;;;;4964180;28;20178;-42
2023/12/06 10:48:51;;;;;;;12.95;11.80;;;;;;;;;;4959116;28;20269;-42
2023/12/06 10:51:18;;;;;;;8.82;7.47;;;;;;;;;;4971412;28;20212;-42
2023/12/06 10:53:45;;;;;;;14.18;13.05;;;;;;;;;;4954260;28;20533;-43
2023/12/06 10:56:11;;;;;;;11.00;10.00;;;;;;;;;;4971250;28;20270;-42
2023/12/06 10:58:38;;;;;;;14.50;13.18;;;;;;;;;;4971602;28;20173;-42
2023/12/06 11:01:05;;;;;;;11.60;10.55;;;;;;;;;;4963419;28;20193;-42
2023/12/06 11:03:31;;;;;;;13.65;12.57;;;;;;;;;;4959233;28;20182;-42
2023/12/06 11:05:58;;;;;;;13.57;12.37;;;;;;;;;;4971263;28;20231;-42
2023/12/06 11:08:39;;;;;;;13.18;12.07;;;;;;;;;;4953436;28;20455;-42
2023/12/06 11:11:24;;;;;;;11.73;10.68;;;;;;;;;;4953694;28;20289;-42
2023/12/06 11:13:53;;;;;;;9.38;8.57;;;;;;;;;;4971187;28;20216;-42
2023/12/06 11:16:37;;;;;;;11.85;10.85;;;;;;;;;;4958947;28;20189;-42
2023/12/06 11:19:03;;;;;;;12.70;11.60;;;;;;;;;;4965737;28;20263;-42
2023/12/06 11:21:30;;;;;;;11.68;10.77;;;;;;;;;;4964320;28;20189;-42
2023/12/06 11:23:57;;;;;;;12.80;11.63;;;;;;;;;;4958129;28;20182;-42
2023/12/06 11:26:23;;;;;;;10.32;9.32;;;;;;;;;;4971901;28;20492;-43
2023/12/06 11:28:50;;;;;;;10.60;9.63;;;;;;;;;;4953196;28;20301;-43
2023/12/06 11:31:17;;;;;;;12.32;11.30;;;;;;;;;;4969588;28;20233;-42
2023/12/06 11:33:58;;;;;;;15.52;14.13;;;;;;;;;;4970988;28;20178;-43
2023/12/06 11:36:24;;;;;;;11.38;10.35;;;;;;;;;;4962107;28;20174;-42
2023/12/06 11:38:51;;;;;;;14.60;13.20;;;;;;;;;;4958603;28;20204;-42
2023/12/06 11:41:17;;;;;;;11.23;10.15;;;;;;;;;;4969560;28;20413;-42
2023/12/06 11:43:47;;;;;;;7.97;7.20;;;;;;;;;;4953495;28;20189;-43
2023/12/06 11:46:14;;;;;;;9.45;8.55;;;;;;;;;;4971966;28;20425;-43
2023/12/06 11:48:43;;;;;;;12.00;10.85;;;;;;;;;;4957496;28;20270;-43
2023/12/06 11:51:16;;;;;;;10.85;9.85;;;;;;;;;;4964438;28;20208;-43
2023/12/06 11:53:43;;;;;;;10.68;9.77;;;;;;;;;;4964251;28;20186;-42
2023/12/06 11:56:10;;;;;;;15.95;14.50;;;;;;;;;;4964397;28;20177;-42
2023/12/06 11:58:36;;;;;;;12.30;11.10;;;;;;;;;;4970680;28;20178;-42
2023/12/06 12:01:02;;;;;;;10.20;9.23;;;;;;;;;;4953499;28;20178;-43
2023/12/06 12:03:30;;;;;;;11.02;10.02;;;;;;;;;;4969263;28;20272;-43
2023/12/06 12:05:57;;;;;;;11.13;10.18;;;;;;;;;;4960363;28;20174;-43
2023/12/06 12:08:24;;;;;;;15.60;14.15;;;;;;;;;;4961229;28;20174;-43
2023/12/06 12:10:50;;;;;;;12.75;11.65;;;;;;;;;;4971952;28;20210;-42
2023/12/06 12:13:20;;;;;;;11.93;10.82;;;;;;;;;;4957517;28;20171;-43
2023/12/06 12:15:53;;;;;;;10.82;9.93;;;;;;;;;;4976433;28;20649;-43
2023/12/06 12:18:19;;;;;;;16.48;14.93;;;;;;;;;;4960788;28;20197;-42
2023/12/06 12:20:46;;;;;;;11.77;10.68;;;;;;;;;;4974071;28;20261;-43
2023/12/06 12:23:12;;;;;;;13.50;12.40;;;;;;;;;;4974927;28;20178;-42
2023/12/06 12:25:45;;;;;;;11.68;10.57;;;;;;;;;;4970017;28;20615;-42
2023/12/06 12:28:11;;;;;;;18.88;17.10;;;;;;;;;;4957798;28;20186;-42
2023/12/06 12:30:37;;;;;;;9.70;8.80;;;;;;;;;;4974776;28;20201;-42
2023/12/06 12:33:03;;;;;;;13.93;12.53;;;;;;;;;;4970574;28;20209;-42
2023/12/06 12:35:30;;;;;;;12.05;11.00;;;;;;;;;;4971403;28;20418;-42
2023/12/06 12:37:56;;;;;;;12.18;11.02;;;;;;;;;;4964944;28;20634;-42
2023/12/06 12:40:24;;;;;;;14.48;13.07;;;;;;;;;;4973138;28;20346;-43
2023/12/06 12:42:50;;;;;;;12.13;11.02;;;;;;;;;;4973170;28;20616;-42
2023/12/06 12:45:19;;;;;;;10.50;9.50;;;;;;;;;;4975816;28;20252;-43
2023/12/06 12:47:45;;;;;;;10.45;9.45;;;;;;;;;;4970632;28;20409;-42
2023/12/06 12:50:17;;;;;;;9.32;8.45;;;;;;;;;;4974812;28;20241;-42
2023/12/06 12:52:43;;;;;;;9.05;8.15;;;;;;;;;;4964547;28;20174;-43
2023/12/06 12:55:09;;;;;;;10.00;9.00;;;;;;;;;;4968150;28;20184;-42
2023/12/06 12:57:42;;;;;;;12.27;11.15;;;;;;;;;;4973759;28;20408;-42
2023/12/06 13:00:18;;;;;;;14.60;13.45;;;;;;;;;;4968678;28;20273;-42
2023/12/06 13:02:45;;;;;;;11.18;10.18;;;;;;;;;;4969813;28;20192;-42
2023/12/06 13:05:11;;;;;;;12.10;11.02;;;;;;;;;;4972712;28;20178;-43
2023/12/06 13:07:37;;;;;;;19.38;17.52;;;;;;;;;;4961220;28;20179;-42
2023/12/06 13:10:10;;;;;;;10.03;9.07;;;;;;;;;;4969462;28;20349;-42
2023/12/06 13:12:37;;;;;;;13.32;12.10;;;;;;;;;;4971082;28;20445;-42
2023/12/06 13:15:03;;;;;;;13.52;12.40;;;;;;;;;;4974000;28;20198;-42
2023/12/06 13:17:29;;;;;;;10.68;9.68;;;;;;;;;;4974042;28;20698;-42
2023/12/06 13:19:55;;;;;;;11.60;10.60;;;;;;;;;;4973988;28;20208;-42
2023/12/06 13:22:22;;;;;;;10.87;9.87;;;;;;;;;;4969877;28;20424;-42
2023/12/06 13:24:48;;;;;;;11.50;10.50;;;;;;;;;;4974504;28;20436;-43
2023/12/06 13:27:14;;;;;;;8.30;7.27;;;;;;;;;;4964599;28;20219;-42
2023/12/06 13:29:40;;;;;;;13.13;11.97;;;;;;;;;;4972889;28;20456;-42
2023/12/06 13:32:07;;;;;;;11.13;10.10;;;;;;;;;;4955969;28;20408;-42
2023/12/06 13:34:33;;;;;;;10.93;9.93;;;;;;;;;;4972317;28;20413;-42
2023/12/06 13:36:59;;;;;;;13.32;12.23;;;;;;;;;;4970228;28;20196;-42
2023/12/06 13:39:28;;;;;;;10.37;9.40;;;;;;;;;;4965216;28;20653;-42
2023/12/06 13:41:57;;;;;;;10.88;9.88;;;;;;;;;;4959373;28;20412;-42
2023/12/06 13:44:23;;;;;;;11.40;10.38;;;;;;;;;;4957091;28;20541;-42
2023/12/06 13:46:49;;;;;;;10.02;9.07;;;;;;;;;;4973900;28;20211;-42
2023/12/06 13:49:15;;;;;;;12.65;11.60;;;;;;;;;;4967740;28;20565;-42
2023/12/06 13:51:41;;;;;;;10.10;9.15;;;;;;;;;;4961043;28;20174;-43
2023/12/06 13:54:07;;;;;;;11.30;10.20;;;;;;;;;;4964390;28;20181;-42
2023/12/06 13:56:33;;;;;;;12.57;11.50;;;;;;;;;;4968707;28;20473;-42
2023/12/06 13:58:59;;;;;;;13.05;11.80;;;;;;;;;;4969912;28;20820;-42
2023/12/06 14:01:25;;;;;;;13.20;12.10;;;;;;;;;;4969961;28;20197;-42
2023/12/06 14:03:55;;;;;;;11.00;10.00;;;;;;;;;;4973811;28;20186;-42
2023/12/06 14:06:22;;;;;;;12.77;11.70;;;;;;;;;;4960781;28;20422;-42
2023/12/06 14:08:48;;;;;;;12.57;11.55;;;;;;;;;;4964524;28;20217;-42
2023/12/06 14:11:14;;;;;;;9.23;8.40;;;;;;;;;;4970462;28;20693;-42
2023/12/06 14:13:41;;;;;;;12.07;10.87;;;;;;;;;;4973279;28;20479;-42
2023/12/06 14:16:10;;;;;;;12.23;11.10;;;;;;;;;;4971794;28;20686;-42
2023/12/06 14:18:36;;;;;;;19.75;18.35;;;;;;;;;;4973015;28;20221;-42